sensor_id;sensor_type;location;lat;lon;timestamp;P1;durP1;ratioP1;P2;durP2;ratioP2
74074;SDS011;62428;51.412;5.432;2023-03-15T00:01:00;8.90;;;1.87;;
74074;SDS011;62428;51.412;5.432;2023-03-15T00:03:31;8.10;;;1.27;;
74074;SDS011;62428;51.412;5.432;2023-03-15T00:06:01;5.75;;;1.50;;
74074;SDS011;62428;51.412;5.432;2023-03-15T00:08:26;3.50;;;1.30;;
74074;SDS011;62428;51.412;5.432;2023-03-15T00:10:52;7.20;;;0.90;;
74074;SDS011;62428;51.412;5.432;2023-03-15T00:13:17;9.67;;;1.33;;
74074;SDS011;62428;51.412;5.432;2023-03-15T00:15:49;3.57;;;0.97;;
74074;SDS011;62428;51.412;5.432;2023-03-15T00:18:18;5.70;;;1.30;;
74074;SDS011;62428;51.412;5.432;2023-03-15T00:20:44;7.32;;;1.55;;
74074;SDS011;62428;51.412;5.432;2023-03-15T00:23:12;5.60;;;0.90;;
74074;SDS011;62428;51.412;5.432;2023-03-15T00:25:37;6.18;;;0.80;;
74074;SDS011;62428;51.412;5.432;2023-03-15T00:28:03;2.78;;;0.52;;
74074;SDS011;62428;51.412;5.432;2023-03-15T00:30:29;6.53;;;1.00;;
74074;SDS011;62428;51.412;5.432;2023-03-15T00:32:54;6.93;;;1.17;;
74074;SDS011;62428;51.412;5.432;2023-03-15T00:35:20;5.80;;;1.17;;
74074;SDS011;62428;51.412;5.432;2023-03-15T00:37:49;5.30;;;1.20;;
74074;SDS011;62428;51.412;5.432;2023-03-15T00:40:18;5.93;;;1.40;;
74074;SDS011;62428;51.412;5.432;2023-03-15T00:42:44;5.65;;;1.83;;
74074;SDS011;62428;51.412;5.432;2023-03-15T00:45:14;6.15;;;1.67;;
74074;SDS011;62428;51.412;5.432;2023-03-15T00:47:40;10.77;;;2.27;;
74074;SDS011;62428;51.412;5.432;2023-03-15T00:50:06;6.18;;;1.67;;
74074;SDS011;62428;51.412;5.432;2023-03-15T00:52:35;5.68;;;2.50;;
74074;SDS011;62428;51.412;5.432;2023-03-15T00:55:01;7.22;;;2.67;;
74074;SDS011;62428;51.412;5.432;2023-03-15T00:57:27;12.23;;;3.90;;
74074;SDS011;62428;51.412;5.432;2023-03-15T00:59:52;11.30;;;3.10;;
74074;SDS011;62428;51.412;5.432;2023-03-15T01:02:18;10.57;;;3.77;;
74074;SDS011;62428;51.412;5.432;2023-03-15T01:04:46;9.73;;;4.18;;
74074;SDS011;62428;51.412;5.432;2023-03-15T01:07:13;9.95;;;4.30;;
74074;SDS011;62428;51.412;5.432;2023-03-15T01:09:38;9.83;;;4.40;;
74074;SDS011;62428;51.412;5.432;2023-03-15T01:12:03;10.70;;;4.13;;
74074;SDS011;62428;51.412;5.432;2023-03-15T01:14:29;9.38;;;3.88;;
74074;SDS011;62428;51.412;5.432;2023-03-15T01:16:54;7.90;;;3.53;;
74074;SDS011;62428;51.412;5.432;2023-03-15T01:19:20;7.63;;;3.33;;
74074;SDS011;62428;51.412;5.432;2023-03-15T01:21:45;6.73;;;3.43;;
74074;SDS011;62428;51.412;5.432;2023-03-15T01:24:12;6.70;;;2.80;;
74074;SDS011;62428;51.412;5.432;2023-03-15T01:26:39;5.97;;;3.70;;
74074;SDS011;62428;51.412;5.432;2023-03-15T01:29:07;7.97;;;2.83;;
74074;SDS011;62428;51.412;5.432;2023-03-15T01:31:32;6.95;;;3.42;;
74074;SDS011;62428;51.412;5.432;2023-03-15T01:33:58;5.50;;;2.58;;
74074;SDS011;62428;51.412;5.432;2023-03-15T01:36:24;8.23;;;3.83;;
74074;SDS011;62428;51.412;5.432;2023-03-15T01:38:50;5.60;;;2.15;;
74074;SDS011;62428;51.412;5.432;2023-03-15T01:41:18;4.70;;;2.67;;
74074;SDS011;62428;51.412;5.432;2023-03-15T01:43:43;6.40;;;3.50;;
74074;SDS011;62428;51.412;5.432;2023-03-15T01:49:06;6.27;;;3.13;;
74074;SDS011;62428;51.412;5.432;2023-03-15T01:54:18;4.97;;;2.78;;
74074;SDS011;62428;51.412;5.432;2023-03-15T01:57:02;8.70;;;2.95;;
74074;SDS011;62428;51.412;5.432;2023-03-15T01:59:48;6.78;;;3.00;;
74074;SDS011;62428;51.412;5.432;2023-03-15T02:02:19;3.93;;;2.77;;
74074;SDS011;62428;51.412;5.432;2023-03-15T02:04:48;6.35;;;2.70;;
74074;SDS011;62428;51.412;5.432;2023-03-15T02:07:18;5.88;;;2.75;;
74074;SDS011;62428;51.412;5.432;2023-03-15T02:09:51;5.85;;;2.78;;
74074;SDS011;62428;51.412;5.432;2023-03-15T02:12:24;6.78;;;2.83;;
74074;SDS011;62428;51.412;5.432;2023-03-15T02:14:50;7.77;;;2.93;;
74074;SDS011;62428;51.412;5.432;2023-03-15T02:17:18;6.15;;;3.00;;
74074;SDS011;62428;51.412;5.432;2023-03-15T02:22:41;8.48;;;3.03;;
74074;SDS011;62428;51.412;5.432;2023-03-15T02:28:04;6.47;;;3.03;;
74074;SDS011;62428;51.412;5.432;2023-03-15T02:30:32;7.78;;;3.25;;
74074;SDS011;62428;51.412;5.432;2023-03-15T02:33:01;8.27;;;4.07;;
74074;SDS011;62428;51.412;5.432;2023-03-15T02:35:31;6.65;;;3.45;;
74074;SDS011;62428;51.412;5.432;2023-03-15T02:37:58;8.98;;;4.25;;
74074;SDS011;62428;51.412;5.432;2023-03-15T02:40:24;6.67;;;3.80;;
74074;SDS011;62428;51.412;5.432;2023-03-15T02:42:52;8.13;;;2.83;;
74074;SDS011;62428;51.412;5.432;2023-03-15T02:45:29;7.82;;;3.55;;
74074;SDS011;62428;51.412;5.432;2023-03-15T02:47:56;5.43;;;3.30;;
74074;SDS011;62428;51.412;5.432;2023-03-15T02:50:22;5.85;;;2.92;;
74074;SDS011;62428;51.412;5.432;2023-03-15T02:52:48;6.10;;;3.20;;
74074;SDS011;62428;51.412;5.432;2023-03-15T02:55:13;6.10;;;3.57;;
74074;SDS011;62428;51.412;5.432;2023-03-15T02:57:39;6.43;;;3.07;;
74074;SDS011;62428;51.412;5.432;2023-03-15T03:00:04;6.93;;;3.15;;
74074;SDS011;62428;51.412;5.432;2023-03-15T03:02:36;6.13;;;3.00;;
74074;SDS011;62428;51.412;5.432;2023-03-15T03:05:01;6.68;;;2.53;;
74074;SDS011;62428;51.412;5.432;2023-03-15T03:07:26;5.80;;;2.43;;
74074;SDS011;62428;51.412;5.432;2023-03-15T03:09:52;6.70;;;2.90;;
74074;SDS011;62428;51.412;5.432;2023-03-15T03:12:17;4.97;;;2.90;;
74074;SDS011;62428;51.412;5.432;2023-03-15T03:14:42;4.97;;;2.90;;
74074;SDS011;62428;51.412;5.432;2023-03-15T03:17:08;6.13;;;3.00;;
74074;SDS011;62428;51.412;5.432;2023-03-15T03:19:33;5.40;;;2.70;;
74074;SDS011;62428;51.412;5.432;2023-03-15T03:21:58;4.73;;;2.93;;
74074;SDS011;62428;51.412;5.432;2023-03-15T03:24:24;4.65;;;2.85;;
74074;SDS011;62428;51.412;5.432;2023-03-15T03:26:50;6.22;;;2.83;;
74074;SDS011;62428;51.412;5.432;2023-03-15T03:29:15;4.95;;;2.63;;
74074;SDS011;62428;51.412;5.432;2023-03-15T03:31:41;4.13;;;2.60;;
74074;SDS011;62428;51.412;5.432;2023-03-15T03:34:07;3.60;;;2.30;;
74074;SDS011;62428;51.412;5.432;2023-03-15T03:36:34;6.07;;;2.57;;
74074;SDS011;62428;51.412;5.432;2023-03-15T03:39:00;4.97;;;2.28;;
74074;SDS011;62428;51.412;5.432;2023-03-15T03:41:25;3.90;;;2.07;;
74074;SDS011;62428;51.412;5.432;2023-03-15T03:43:51;3.80;;;1.97;;
74074;SDS011;62428;51.412;5.432;2023-03-15T03:46:17;3.40;;;2.05;;
74074;SDS011;62428;51.412;5.432;2023-03-15T03:48:42;3.60;;;2.20;;
74074;SDS011;62428;51.412;5.432;2023-03-15T03:51:07;4.73;;;2.80;;
74074;SDS011;62428;51.412;5.432;2023-03-15T03:53:33;4.80;;;2.47;;
74074;SDS011;62428;51.412;5.432;2023-03-15T03:55:58;4.17;;;2.90;;
74074;SDS011;62428;51.412;5.432;2023-03-15T03:58:23;4.73;;;2.67;;
74074;SDS011;62428;51.412;5.432;2023-03-15T04:00:50;6.07;;;2.92;;
74074;SDS011;62428;51.412;5.432;2023-03-15T04:03:18;5.57;;;2.87;;
74074;SDS011;62428;51.412;5.432;2023-03-15T04:05:47;5.75;;;3.13;;
74074;SDS011;62428;51.412;5.432;2023-03-15T04:08:13;5.68;;;3.10;;
74074;SDS011;62428;51.412;5.432;2023-03-15T04:10:38;5.27;;;2.90;;
74074;SDS011;62428;51.412;5.432;2023-03-15T04:13:03;5.43;;;3.20;;
74074;SDS011;62428;51.412;5.432;2023-03-15T04:15:29;6.00;;;3.33;;
74074;SDS011;62428;51.412;5.432;2023-03-15T04:17:55;5.47;;;3.53;;
74074;SDS011;62428;51.412;5.432;2023-03-15T04:20:21;7.07;;;3.93;;
74074;SDS011;62428;51.412;5.432;2023-03-15T04:22:47;7.35;;;3.90;;
74074;SDS011;62428;51.412;5.432;2023-03-15T04:25:16;6.43;;;3.25;;
74074;SDS011;62428;51.412;5.432;2023-03-15T04:27:42;5.80;;;3.53;;
74074;SDS011;62428;51.412;5.432;2023-03-15T04:30:08;6.13;;;3.50;;
74074;SDS011;62428;51.412;5.432;2023-03-15T04:32:34;7.07;;;3.67;;
74074;SDS011;62428;51.412;5.432;2023-03-15T04:34:59;8.73;;;4.60;;
74074;SDS011;62428;51.412;5.432;2023-03-15T04:37:26;8.50;;;4.28;;
74074;SDS011;62428;51.412;5.432;2023-03-15T04:39:51;8.67;;;4.70;;
74074;SDS011;62428;51.412;5.432;2023-03-15T04:42:17;9.40;;;5.00;;
74074;SDS011;62428;51.412;5.432;2023-03-15T04:44:42;9.63;;;5.07;;
74074;SDS011;62428;51.412;5.432;2023-03-15T04:47:08;7.80;;;4.57;;
74074;SDS011;62428;51.412;5.432;2023-03-15T04:49:33;10.40;;;4.87;;
74074;SDS011;62428;51.412;5.432;2023-03-15T04:51:59;8.43;;;4.75;;
74074;SDS011;62428;51.412;5.432;2023-03-15T04:54:25;9.00;;;4.57;;
74074;SDS011;62428;51.412;5.432;2023-03-15T04:56:50;9.75;;;4.97;;
74074;SDS011;62428;51.412;5.432;2023-03-15T04:59:15;10.02;;;4.90;;
74074;SDS011;62428;51.412;5.432;2023-03-15T05:01:41;10.77;;;4.80;;
74074;SDS011;62428;51.412;5.432;2023-03-15T05:04:06;8.60;;;4.90;;
74074;SDS011;62428;51.412;5.432;2023-03-15T05:06:32;9.73;;;5.23;;
74074;SDS011;62428;51.412;5.432;2023-03-15T05:08:57;10.40;;;5.53;;
74074;SDS011;62428;51.412;5.432;2023-03-15T05:11:23;12.23;;;5.00;;
74074;SDS011;62428;51.412;5.432;2023-03-15T05:13:48;12.13;;;5.40;;
74074;SDS011;62428;51.412;5.432;2023-03-15T05:16:14;8.73;;;4.70;;
74074;SDS011;62428;51.412;5.432;2023-03-15T05:18:39;9.57;;;5.10;;
74074;SDS011;62428;51.412;5.432;2023-03-15T05:21:05;8.70;;;4.63;;
74074;SDS011;62428;51.412;5.432;2023-03-15T05:23:31;10.17;;;5.23;;
74074;SDS011;62428;51.412;5.432;2023-03-15T05:25:58;10.15;;;5.32;;
74074;SDS011;62428;51.412;5.432;2023-03-15T05:28:24;9.17;;;5.03;;
74074;SDS011;62428;51.412;5.432;2023-03-15T05:30:50;9.50;;;5.15;;
74074;SDS011;62428;51.412;5.432;2023-03-15T05:33:17;10.88;;;5.35;;
74074;SDS011;62428;51.412;5.432;2023-03-15T05:35:43;9.45;;;5.70;;
74074;SDS011;62428;51.412;5.432;2023-03-15T05:38:09;8.50;;;4.80;;
74074;SDS011;62428;51.412;5.432;2023-03-15T05:40:43;10.63;;;5.18;;
74074;SDS011;62428;51.412;5.432;2023-03-15T05:43:10;10.30;;;5.15;;
74074;SDS011;62428;51.412;5.432;2023-03-15T05:45:36;10.57;;;5.30;;
74074;SDS011;62428;51.412;5.432;2023-03-15T05:48:05;8.50;;;5.20;;
74074;SDS011;62428;51.412;5.432;2023-03-15T05:50:31;10.77;;;5.10;;
74074;SDS011;62428;51.412;5.432;2023-03-15T05:52:57;10.57;;;5.37;;
74074;SDS011;62428;51.412;5.432;2023-03-15T05:55:22;8.70;;;4.63;;
74074;SDS011;62428;51.412;5.432;2023-03-15T05:57:48;10.10;;;5.65;;
74074;SDS011;62428;51.412;5.432;2023-03-15T06:00:14;9.80;;;5.20;;
74074;SDS011;62428;51.412;5.432;2023-03-15T06:02:41;12.70;;;5.72;;
74074;SDS011;62428;51.412;5.432;2023-03-15T06:05:07;10.80;;;5.80;;
74074;SDS011;62428;51.412;5.432;2023-03-15T06:07:33;12.27;;;6.20;;
74074;SDS011;62428;51.412;5.432;2023-03-15T06:09:58;12.55;;;6.40;;
74074;SDS011;62428;51.412;5.432;2023-03-15T06:12:23;13.03;;;6.67;;
74074;SDS011;62428;51.412;5.432;2023-03-15T06:14:49;14.33;;;6.43;;
74074;SDS011;62428;51.412;5.432;2023-03-15T06:17:17;13.30;;;6.50;;
74074;SDS011;62428;51.412;5.432;2023-03-15T06:19:42;15.57;;;7.28;;
74074;SDS011;62428;51.412;5.432;2023-03-15T06:22:11;15.30;;;7.37;;
74074;SDS011;62428;51.412;5.432;2023-03-15T06:24:37;13.68;;;6.60;;
74074;SDS011;62428;51.412;5.432;2023-03-15T06:27:02;17.13;;;7.67;;
74074;SDS011;62428;51.412;5.432;2023-03-15T06:29:27;15.53;;;7.83;;
74074;SDS011;62428;51.412;5.432;2023-03-15T06:31:53;14.83;;;6.97;;
74074;SDS011;62428;51.412;5.432;2023-03-15T06:34:18;14.38;;;7.32;;
74074;SDS011;62428;51.412;5.432;2023-03-15T06:36:45;16.75;;;8.45;;
74074;SDS011;62428;51.412;5.432;2023-03-15T06:39:11;14.93;;;8.20;;
74074;SDS011;62428;51.412;5.432;2023-03-15T06:41:37;18.17;;;8.00;;
74074;SDS011;62428;51.412;5.432;2023-03-15T06:44:03;17.55;;;8.57;;
74074;SDS011;62428;51.412;5.432;2023-03-15T06:46:29;17.20;;;8.50;;
74074;SDS011;62428;51.412;5.432;2023-03-15T06:48:54;16.70;;;8.33;;
74074;SDS011;62428;51.412;5.432;2023-03-15T06:51:20;15.30;;;7.53;;
74074;SDS011;62428;51.412;5.432;2023-03-15T06:53:46;16.73;;;7.88;;
74074;SDS011;62428;51.412;5.432;2023-03-15T06:56:11;16.60;;;8.27;;
74074;SDS011;62428;51.412;5.432;2023-03-15T06:58:36;19.70;;;8.53;;
74074;SDS011;62428;51.412;5.432;2023-03-15T07:01:04;16.48;;;8.30;;
74074;SDS011;62428;51.412;5.432;2023-03-15T07:03:30;17.48;;;7.90;;
74074;SDS011;62428;51.412;5.432;2023-03-15T07:05:55;22.30;;;8.57;;
74074;SDS011;62428;51.412;5.432;2023-03-15T07:08:21;19.07;;;8.23;;
74074;SDS011;62428;51.412;5.432;2023-03-15T07:10:48;20.25;;;9.60;;
74074;SDS011;62428;51.412;5.432;2023-03-15T07:13:14;19.77;;;8.77;;
74074;SDS011;62428;51.412;5.432;2023-03-15T07:15:40;21.58;;;9.10;;
74074;SDS011;62428;51.412;5.432;2023-03-15T07:18:06;20.40;;;8.38;;
74074;SDS011;62428;51.412;5.432;2023-03-15T07:20:32;19.47;;;8.90;;
74074;SDS011;62428;51.412;5.432;2023-03-15T07:22:57;18.27;;;8.88;;
74074;SDS011;62428;51.412;5.432;2023-03-15T07:25:23;19.07;;;8.20;;
74074;SDS011;62428;51.412;5.432;2023-03-15T07:27:50;20.88;;;8.90;;
74074;SDS011;62428;51.412;5.432;2023-03-15T07:30:16;20.83;;;8.40;;
74074;SDS011;62428;51.412;5.432;2023-03-15T07:32:42;17.57;;;7.80;;
74074;SDS011;62428;51.412;5.432;2023-03-15T07:35:07;15.00;;;7.88;;
74074;SDS011;62428;51.412;5.432;2023-03-15T07:37:33;16.03;;;7.53;;
74074;SDS011;62428;51.412;5.432;2023-03-15T07:39:58;22.63;;;8.23;;
74074;SDS011;62428;51.412;5.432;2023-03-15T07:42:33;15.95;;;6.82;;
74074;SDS011;62428;51.412;5.432;2023-03-15T07:44:59;19.08;;;7.72;;
74074;SDS011;62428;51.412;5.432;2023-03-15T07:47:25;17.77;;;7.93;;
74074;SDS011;62428;51.412;5.432;2023-03-15T07:49:50;16.43;;;7.33;;
74074;SDS011;62428;51.412;5.432;2023-03-15T07:52:15;18.23;;;8.23;;
74074;SDS011;62428;51.412;5.432;2023-03-15T07:54:41;16.53;;;7.30;;
74074;SDS011;62428;51.412;5.432;2023-03-15T07:57:06;15.67;;;7.27;;
74074;SDS011;62428;51.412;5.432;2023-03-15T07:59:31;15.55;;;6.85;;
74074;SDS011;62428;51.412;5.432;2023-03-15T08:01:57;15.70;;;7.70;;
74074;SDS011;62428;51.412;5.432;2023-03-15T08:04:23;15.47;;;7.20;;
74074;SDS011;62428;51.412;5.432;2023-03-15T08:06:48;15.38;;;6.78;;
74074;SDS011;62428;51.412;5.432;2023-03-15T08:09:13;14.88;;;6.72;;
74074;SDS011;62428;51.412;5.432;2023-03-15T08:11:40;13.40;;;6.37;;
74074;SDS011;62428;51.412;5.432;2023-03-15T08:14:05;15.77;;;7.15;;
74074;SDS011;62428;51.412;5.432;2023-03-15T08:16:30;14.87;;;6.73;;
74074;SDS011;62428;51.412;5.432;2023-03-15T08:18:56;20.73;;;8.30;;
74074;SDS011;62428;51.412;5.432;2023-03-15T08:21:21;17.73;;;8.27;;
74074;SDS011;62428;51.412;5.432;2023-03-15T08:23:46;18.30;;;8.83;;
74074;SDS011;62428;51.412;5.432;2023-03-15T08:26:12;15.00;;;7.03;;
74074;SDS011;62428;51.412;5.432;2023-03-15T08:28:37;14.87;;;7.40;;
74074;SDS011;62428;51.412;5.432;2023-03-15T08:31:06;12.60;;;6.05;;
74074;SDS011;62428;51.412;5.432;2023-03-15T08:33:32;12.13;;;6.75;;
74074;SDS011;62428;51.412;5.432;2023-03-15T08:35:58;14.37;;;6.80;;
74074;SDS011;62428;51.412;5.432;2023-03-15T08:38:23;11.18;;;6.07;;
74074;SDS011;62428;51.412;5.432;2023-03-15T08:40:54;12.57;;;6.00;;
74074;SDS011;62428;51.412;5.432;2023-03-15T08:43:22;11.23;;;4.82;;
74074;SDS011;62428;51.412;5.432;2023-03-15T08:45:48;7.55;;;4.60;;
74074;SDS011;62428;51.412;5.432;2023-03-15T08:48:15;7.03;;;3.92;;
74074;SDS011;62428;51.412;5.432;2023-03-15T08:50:40;10.90;;;4.57;;
74074;SDS011;62428;51.412;5.432;2023-03-15T08:53:06;10.30;;;4.17;;
74074;SDS011;62428;51.412;5.432;2023-03-15T08:55:34;8.15;;;4.07;;
74074;SDS011;62428;51.412;5.432;2023-03-15T08:58:01;8.43;;;4.32;;
74074;SDS011;62428;51.412;5.432;2023-03-15T09:00:26;8.80;;;3.73;;
74074;SDS011;62428;51.412;5.432;2023-03-15T09:02:52;8.05;;;3.63;;
74074;SDS011;62428;51.412;5.432;2023-03-15T09:05:19;8.02;;;3.72;;
74074;SDS011;62428;51.412;5.432;2023-03-15T09:07:45;7.67;;;3.20;;
74074;SDS011;62428;51.412;5.432;2023-03-15T09:10:12;9.32;;;3.25;;
74074;SDS011;62428;51.412;5.432;2023-03-15T09:12:40;10.20;;;3.80;;
74074;SDS011;62428;51.412;5.432;2023-03-15T09:15:06;7.75;;;3.88;;
74074;SDS011;62428;51.412;5.432;2023-03-15T09:17:32;7.20;;;3.50;;
74074;SDS011;62428;51.412;5.432;2023-03-15T09:19:57;5.20;;;3.03;;
74074;SDS011;62428;51.412;5.432;2023-03-15T09:22:23;9.17;;;3.27;;
74074;SDS011;62428;51.412;5.432;2023-03-15T09:24:48;7.27;;;3.13;;
74074;SDS011;62428;51.412;5.432;2023-03-15T09:27:13;6.80;;;3.00;;
74074;SDS011;62428;51.412;5.432;2023-03-15T09:29:39;7.43;;;3.13;;
74074;SDS011;62428;51.412;5.432;2023-03-15T09:32:04;7.47;;;2.83;;
74074;SDS011;62428;51.412;5.432;2023-03-15T09:34:30;8.27;;;2.38;;
74074;SDS011;62428;51.412;5.432;2023-03-15T09:36:55;7.73;;;2.90;;
74074;SDS011;62428;51.412;5.432;2023-03-15T09:39:21;7.60;;;2.80;;
74074;SDS011;62428;51.412;5.432;2023-03-15T09:41:48;5.75;;;2.30;;
74074;SDS011;62428;51.412;5.432;2023-03-15T09:55:53;5.32;;;0.98;;
74074;SDS011;62428;51.412;5.432;2023-03-15T09:58:27;4.70;;;0.90;;
74074;SDS011;62428;51.412;5.432;2023-03-15T10:00:59;10.13;;;1.10;;
74074;SDS011;62428;51.412;5.432;2023-03-15T10:03:37;6.57;;;1.23;;
74074;SDS011;62428;51.412;5.432;2023-03-15T10:06:12;8.07;;;1.52;;
74074;SDS011;62428;51.412;5.432;2023-03-15T10:08:42;7.75;;;1.10;;
74074;SDS011;62428;51.412;5.432;2023-03-15T10:11:12;9.50;;;0.70;;
74074;SDS011;62428;51.412;5.432;2023-03-15T10:16:39;5.93;;;0.95;;
74074;SDS011;62428;51.412;5.432;2023-03-15T10:21:44;4.32;;;0.85;;
74074;SDS011;62428;51.412;5.432;2023-03-15T10:26:53;3.95;;;0.60;;
74074;SDS011;62428;51.412;5.432;2023-03-15T10:29:23;2.72;;;0.80;;
74074;SDS011;62428;51.412;5.432;2023-03-15T10:31:50;12.05;;;0.70;;
74074;SDS011;62428;51.412;5.432;2023-03-15T10:34:18;3.78;;;0.77;;
74074;SDS011;62428;51.412;5.432;2023-03-15T10:36:47;9.03;;;0.80;;
74074;SDS011;62428;51.412;5.432;2023-03-15T10:39:18;10.10;;;0.98;;
74074;SDS011;62428;51.412;5.432;2023-03-15T10:41:44;5.67;;;0.80;;
74074;SDS011;62428;51.412;5.432;2023-03-15T10:44:14;4.35;;;0.90;;
74074;SDS011;62428;51.412;5.432;2023-03-15T10:46:44;5.10;;;0.80;;
74074;SDS011;62428;51.412;5.432;2023-03-15T10:49:27;3.42;;;0.75;;
74074;SDS011;62428;51.412;5.432;2023-03-15T10:51:59;3.50;;;0.63;;
74074;SDS011;62428;51.412;5.432;2023-03-15T10:54:24;2.92;;;0.40;;
74074;SDS011;62428;51.412;5.432;2023-03-15T10:57:01;10.05;;;0.90;;
74074;SDS011;62428;51.412;5.432;2023-03-15T10:59:54;7.07;;;0.73;;
74074;SDS011;62428;51.412;5.432;2023-03-15T11:02:23;7.28;;;0.60;;
74074;SDS011;62428;51.412;5.432;2023-03-15T11:05:01;4.80;;;0.52;;
74074;SDS011;62428;51.412;5.432;2023-03-15T11:07:39;5.55;;;0.50;;
74074;SDS011;62428;51.412;5.432;2023-03-15T11:10:22;6.40;;;0.40;;
74074;SDS011;62428;51.412;5.432;2023-03-15T11:12:49;1.70;;;0.38;;
74074;SDS011;62428;51.412;5.432;2023-03-15T11:15:14;4.23;;;0.40;;
74074;SDS011;62428;51.412;5.432;2023-03-15T11:17:41;3.10;;;0.50;;
74074;SDS011;62428;51.412;5.432;2023-03-15T11:22:54;3.97;;;0.98;;
74074;SDS011;62428;51.412;5.432;2023-03-15T11:25:21;2.80;;;0.80;;
74074;SDS011;62428;51.412;5.432;2023-03-15T11:27:53;3.72;;;0.40;;
74074;SDS011;62428;51.412;5.432;2023-03-15T11:30:20;1.65;;;0.38;;
74074;SDS011;62428;51.412;5.432;2023-03-15T11:32:51;1.97;;;0.40;;
74074;SDS011;62428;51.412;5.432;2023-03-15T11:37:46;3.65;;;0.32;;
74074;SDS011;62428;51.412;5.432;2023-03-15T11:40:16;3.38;;;0.38;;
74074;SDS011;62428;51.412;5.432;2023-03-15T11:43:02;3.05;;;0.57;;
74074;SDS011;62428;51.412;5.432;2023-03-15T11:45:33;3.43;;;0.50;;
74074;SDS011;62428;51.412;5.432;2023-03-15T11:48:06;4.85;;;1.20;;
74074;SDS011;62428;51.412;5.432;2023-03-15T11:50:40;2.20;;;0.40;;
74074;SDS011;62428;51.412;5.432;2023-03-15T11:53:05;3.17;;;0.33;;
74074;SDS011;62428;51.412;5.432;2023-03-15T11:55:36;4.38;;;0.40;;
74074;SDS011;62428;51.412;5.432;2023-03-15T12:00:54;2.60;;;0.40;;
74074;SDS011;62428;51.412;5.432;2023-03-15T12:08:39;3.90;;;0.40;;
74074;SDS011;62428;51.412;5.432;2023-03-15T12:11:10;4.90;;;0.40;;
74074;SDS011;62428;51.412;5.432;2023-03-15T12:13:36;4.43;;;0.50;;
74074;SDS011;62428;51.412;5.432;2023-03-15T12:16:04;8.32;;;0.60;;
74074;SDS011;62428;51.412;5.432;2023-03-15T12:18:31;2.85;;;0.52;;
74074;SDS011;62428;51.412;5.432;2023-03-15T12:29:23;2.05;;;0.40;;
74074;SDS011;62428;51.412;5.432;2023-03-15T12:34:35;5.28;;;0.40;;
74074;SDS011;62428;51.412;5.432;2023-03-15T12:37:52;3.83;;;0.30;;
74074;SDS011;62428;51.412;5.432;2023-03-15T12:59:09;1.60;;;0.30;;
74074;SDS011;62428;51.412;5.432;2023-03-15T13:01:40;3.60;;;0.70;;
74074;SDS011;62428;51.412;5.432;2023-03-15T13:04:07;2.45;;;0.40;;
74074;SDS011;62428;51.412;5.432;2023-03-15T13:12:03;1.50;;;0.40;;
74074;SDS011;62428;51.412;5.432;2023-03-15T13:14:35;3.13;;;0.38;;
74074;SDS011;62428;51.412;5.432;2023-03-15T13:28:48;3.10;;;0.40;;
74074;SDS011;62428;51.412;5.432;2023-03-15T13:31:21;3.83;;;0.30;;
74074;SDS011;62428;51.412;5.432;2023-03-15T13:33:49;5.07;;;0.65;;
74074;SDS011;62428;51.412;5.432;2023-03-15T13:36:21;2.83;;;0.30;;
74074;SDS011;62428;51.412;5.432;2023-03-15T13:39:07;2.30;;;0.20;;
74074;SDS011;62428;51.412;5.432;2023-03-15T13:41:38;1.23;;;0.20;;
74074;SDS011;62428;51.412;5.432;2023-03-15T13:44:11;2.55;;;0.40;;
74074;SDS011;62428;51.412;5.432;2023-03-15T13:46:40;2.55;;;0.50;;
74074;SDS011;62428;51.412;5.432;2023-03-15T13:49:06;3.65;;;0.60;;
74074;SDS011;62428;51.412;5.432;2023-03-15T13:51:32;2.50;;;0.30;;
74074;SDS011;62428;51.412;5.432;2023-03-15T13:56:55;1.33;;;0.20;;
74074;SDS011;62428;51.412;5.432;2023-03-15T13:59:31;2.00;;;0.22;;
74074;SDS011;62428;51.412;5.432;2023-03-15T14:02:02;1.65;;;0.30;;
74074;SDS011;62428;51.412;5.432;2023-03-15T14:04:29;1.45;;;0.35;;
74074;SDS011;62428;51.412;5.432;2023-03-15T14:12:42;1.60;;;0.40;;
74074;SDS011;62428;51.412;5.432;2023-03-15T14:15:16;2.15;;;0.30;;
74074;SDS011;62428;51.412;5.432;2023-03-15T14:17:50;2.22;;;0.35;;
74074;SDS011;62428;51.412;5.432;2023-03-15T14:20:17;1.80;;;0.47;;
74074;SDS011;62428;51.412;5.432;2023-03-15T14:22:43;2.07;;;0.33;;
74074;SDS011;62428;51.412;5.432;2023-03-15T14:25:18;2.87;;;0.50;;
74074;SDS011;62428;51.412;5.432;2023-03-15T14:27:45;3.65;;;0.47;;
74074;SDS011;62428;51.412;5.432;2023-03-15T14:30:24;3.53;;;0.60;;
74074;SDS011;62428;51.412;5.432;2023-03-15T14:32:57;1.55;;;0.40;;
74074;SDS011;62428;51.412;5.432;2023-03-15T14:38:02;2.03;;;0.40;;
74074;SDS011;62428;51.412;5.432;2023-03-15T14:42:59;3.35;;;0.45;;
74074;SDS011;62428;51.412;5.432;2023-03-15T14:45:25;1.55;;;0.60;;
74074;SDS011;62428;51.412;5.432;2023-03-15T14:47:52;2.17;;;0.50;;
74074;SDS011;62428;51.412;5.432;2023-03-15T14:50:26;4.70;;;0.60;;
74074;SDS011;62428;51.412;5.432;2023-03-15T14:52:55;1.67;;;0.60;;
74074;SDS011;62428;51.412;5.432;2023-03-15T14:55:23;0.90;;;0.40;;
74074;SDS011;62428;51.412;5.432;2023-03-15T14:57:52;1.30;;;0.47;;
74074;SDS011;62428;51.412;5.432;2023-03-15T15:00:17;1.90;;;0.50;;
74074;SDS011;62428;51.412;5.432;2023-03-15T15:02:45;3.30;;;0.40;;
74074;SDS011;62428;51.412;5.432;2023-03-15T15:07:50;4.70;;;0.80;;
74074;SDS011;62428;51.412;5.432;2023-03-15T15:10:19;2.45;;;0.40;;
74074;SDS011;62428;51.412;5.432;2023-03-15T15:12:46;2.10;;;0.63;;
74074;SDS011;62428;51.412;5.432;2023-03-15T15:15:15;1.67;;;0.30;;
74074;SDS011;62428;51.412;5.432;2023-03-15T15:17:42;3.10;;;0.65;;
74074;SDS011;62428;51.412;5.432;2023-03-15T15:20:08;4.03;;;0.63;;
74074;SDS011;62428;51.412;5.432;2023-03-15T15:22:36;2.83;;;0.50;;
74074;SDS011;62428;51.412;5.432;2023-03-15T15:25:14;3.63;;;0.70;;
74074;SDS011;62428;51.412;5.432;2023-03-15T15:27:45;2.95;;;0.60;;
74074;SDS011;62428;51.412;5.432;2023-03-15T15:30:14;4.50;;;0.43;;
74074;SDS011;62428;51.412;5.432;2023-03-15T15:32:42;9.95;;;0.60;;
74074;SDS011;62428;51.412;5.432;2023-03-15T15:35:12;2.13;;;0.40;;
74074;SDS011;62428;51.412;5.432;2023-03-15T15:37:40;1.60;;;0.50;;
74074;SDS011;62428;51.412;5.432;2023-03-15T15:40:09;4.47;;;0.60;;
74074;SDS011;62428;51.412;5.432;2023-03-15T15:42:40;2.57;;;0.40;;
74074;SDS011;62428;51.412;5.432;2023-03-15T15:45:08;2.78;;;0.70;;
74074;SDS011;62428;51.412;5.432;2023-03-15T15:47:36;1.55;;;0.50;;
74074;SDS011;62428;51.412;5.432;2023-03-15T15:50:02;8.30;;;0.60;;
74074;SDS011;62428;51.412;5.432;2023-03-15T15:52:27;1.45;;;0.50;;
74074;SDS011;62428;51.412;5.432;2023-03-15T15:54:53;2.03;;;0.52;;
74074;SDS011;62428;51.412;5.432;2023-03-15T15:57:18;2.00;;;0.50;;
74074;SDS011;62428;51.412;5.432;2023-03-15T15:59:46;1.40;;;0.30;;
74074;SDS011;62428;51.412;5.432;2023-03-15T16:02:12;1.80;;;0.47;;
74074;SDS011;62428;51.412;5.432;2023-03-15T16:04:46;3.50;;;0.50;;
74074;SDS011;62428;51.412;5.432;2023-03-15T16:07:14;2.40;;;0.55;;
74074;SDS011;62428;51.412;5.432;2023-03-15T16:09:40;4.93;;;0.50;;
74074;SDS011;62428;51.412;5.432;2023-03-15T16:12:16;2.35;;;0.40;;
74074;SDS011;62428;51.412;5.432;2023-03-15T16:14:43;4.20;;;0.60;;
74074;SDS011;62428;51.412;5.432;2023-03-15T16:17:19;2.87;;;0.73;;
74074;SDS011;62428;51.412;5.432;2023-03-15T16:19:46;2.83;;;0.70;;
74074;SDS011;62428;51.412;5.432;2023-03-15T16:22:11;1.60;;;0.65;;
74074;SDS011;62428;51.412;5.432;2023-03-15T16:24:37;1.47;;;0.40;;
74074;SDS011;62428;51.412;5.432;2023-03-15T16:27:08;4.78;;;0.55;;
74074;SDS011;62428;51.412;5.432;2023-03-15T16:29:39;2.22;;;0.55;;
74074;SDS011;62428;51.412;5.432;2023-03-15T16:32:13;1.75;;;0.50;;
74074;SDS011;62428;51.412;5.432;2023-03-15T16:34:40;1.15;;;0.50;;